Time;durP1;ratioP1;P1;durP2;ratioP2;P2;SDS_P1;SDS_P2;PMS_P1;PMS_P2;Temp;Humidity;BMP_temperature;BMP_pressure;BME280_temperature;BME280_humidity;BME280_pressure;Samples;Min_cycle;Max_cycle;Signal;HPM_P1;HPM_P2
2023/07/22 00:00:32;;;;;;;1.63;1.42;;;18.10;76.50;;;;;;4974658;28;20355;-61
2023/07/22 00:02:57;;;;;;;2.45;1.45;;;18.10;76.50;;;;;;4974799;28;20093;-61
2023/07/22 00:05:23;;;;;;;2.45;1.35;;;18.00;76.10;;;;;;4977627;28;20136;-59
2023/07/22 00:07:50;;;;;;;2.97;1.33;;;18.00;76.30;;;;;;4976521;28;20039;-59
2023/07/22 00:10:16;;;;;;;1.40;1.30;;;18.00;76.10;;;;;;4977205;28;20580;-60
2023/07/22 00:12:41;;;;;;;1.40;1.30;;;17.90;76.10;;;;;;4974418;28;20042;-59
2023/07/22 00:15:08;;;;;;;1.65;1.40;;;17.90;76.10;;;;;;4976015;28;20408;-60
2023/07/22 00:17:33;;;;;;;1.48;1.33;;;17.80;75.80;;;;;;4975533;28;20438;-61
2023/07/22 00:20:00;;;;;;;3.67;1.50;;;17.80;75.80;;;;;;4974910;28;20034;-58
2023/07/22 00:22:26;;;;;;;2.15;1.52;;;17.70;75.80;;;;;;4971156;28;20045;-60
2023/07/22 00:24:52;;;;;;;3.03;1.35;;;17.70;76.80;;;;;;4973222;28;20042;-58
2023/07/22 00:27:18;;;;;;;3.17;1.65;;;17.50;76.10;;;;;;4975427;28;20398;-59
2023/07/22 00:29:43;;;;;;;1.92;1.25;;;17.50;76.30;;;;;;4973762;28;20050;-59
2023/07/22 00:32:09;;;;;;;2.58;1.55;;;17.40;76.50;;;;;;4974192;28;20109;-59
2023/07/22 00:34:36;;;;;;;1.70;1.60;;;17.40;76.80;;;;;;4974293;28;20046;-59
2023/07/22 00:37:02;;;;;;;2.63;1.70;;;17.40;77.00;;;;;;4971851;28;20045;-60
2023/07/22 00:39:28;;;;;;;2.00;1.25;;;17.30;77.00;;;;;;4975302;28;20030;-61
2023/07/22 00:41:53;;;;;;;1.40;1.30;;;17.30;77.10;;;;;;4974802;28;20042;-60
2023/07/22 00:44:19;;;;;;;2.08;1.65;;;17.20;77.20;;;;;;4974908;28;20034;-60
2023/07/22 00:46:45;;;;;;;1.63;1.30;;;17.20;77.20;;;;;;4973071;28;20030;-58
2023/07/22 00:49:14;;;;;;;1.50;1.40;;;17.10;77.30;;;;;;4974373;28;20030;-60
2023/07/22 00:51:39;;;;;;;3.65;1.17;;;17.10;77.30;;;;;;4975854;28;20034;-59
2023/07/22 00:54:05;;;;;;;3.63;1.13;;;17.00;77.10;;;;;;4971868;28;20050;-58
2023/07/22 00:56:35;;;;;;;1.50;1.10;;;17.00;77.00;;;;;;4974871;28;20089;-58
2023/07/22 00:59:01;;;;;;;3.92;1.27;;;16.90;77.30;;;;;;4975321;28;20113;-59
2023/07/22 01:01:27;;;;;;;2.05;1.40;;;16.90;77.50;;;;;;4976818;28;20030;-58
2023/07/22 01:03:53;;;;;;;1.40;1.30;;;16.80;77.50;;;;;;4976207;28;20100;-60
2023/07/22 01:06:20;;;;;;;1.95;1.40;;;16.80;78.40;;;;;;4975946;28;20328;-60
2023/07/22 01:08:46;;;;;;;1.75;1.42;;;16.80;77.70;;;;;;4972634;28;20502;-59
2023/07/22 01:11:12;;;;;;;1.92;1.50;;;16.70;77.90;;;;;;4973748;28;20164;-60
2023/07/22 01:13:38;;;;;;;3.25;1.63;;;16.70;78.10;;;;;;4973714;28;20038;-61
2023/07/22 01:16:05;;;;;;;1.98;1.50;;;16.70;78.30;;;;;;4975568;28;20042;-60
2023/07/22 01:18:33;;;;;;;2.67;1.27;;;16.60;78.40;;;;;;4973013;28;20039;-59
2023/07/22 01:20:58;;;;;;;2.42;1.50;;;16.60;78.40;;;;;;4974354;28;20210;-59
2023/07/22 01:23:24;;;;;;;1.25;1.15;;;16.60;78.60;;;;;;4974937;28;21420;-58
2023/07/22 01:25:51;;;;;;;2.75;1.30;;;16.60;78.70;;;;;;4967805;28;20030;-61
2023/07/22 01:28:17;;;;;;;2.67;1.63;;;16.50;78.80;;;;;;4970274;28;20042;-61
2023/07/22 01:30:42;;;;;;;2.28;1.52;;;16.50;79.00;;;;;;4970053;28;20502;-59
2023/07/22 01:33:08;;;;;;;1.83;1.60;;;16.50;79.20;;;;;;4976424;28;20053;-60
2023/07/22 01:35:34;;;;;;;1.55;1.27;;;16.50;79.40;;;;;;4975100;28;20454;-60
2023/07/22 01:37:59;;;;;;;2.47;1.50;;;16.50;79.50;;;;;;4979457;28;20057;-61
2023/07/22 01:40:25;;;;;;;3.10;1.40;;;16.50;79.60;;;;;;4978620;28;20163;-61
2023/07/22 01:42:51;;;;;;;1.60;1.50;;;16.50;79.60;;;;;;4979672;28;20088;-60
2023/07/22 01:45:17;;;;;;;1.60;1.42;;;16.50;79.30;;;;;;4977657;28;20043;-61
2023/07/22 01:47:42;;;;;;;2.42;1.70;;;16.50;79.30;;;;;;4969179;28;20031;-58
2023/07/22 01:50:10;;;;;;;1.95;1.58;;;16.50;79.30;;;;;;4971052;28;20139;-59
2023/07/22 01:52:36;;;;;;;3.67;1.35;;;16.50;79.10;;;;;;4972124;28;20039;-60
2023/07/22 01:55:05;;;;;;;2.78;1.52;;;16.50;79.10;;;;;;4970487;28;20039;-60
2023/07/22 01:57:31;;;;;;;3.13;1.50;;;16.50;79.10;;;;;;4970634;28;20114;-60
2023/07/22 01:59:56;;;;;;;2.03;1.63;;;16.50;79.10;;;;;;4974169;28;20502;-58
2023/07/22 02:02:22;;;;;;;2.15;1.65;;;16.50;79.10;;;;;;4970731;28;20647;-60
2023/07/22 02:04:51;;;;;;;2.40;1.80;;;16.50;78.90;;;;;;4970129;28;20038;-59
2023/07/22 02:07:16;;;;;;;2.05;1.73;;;16.40;79.10;;;;;;4970963;28;20042;-59
2023/07/22 02:09:42;;;;;;;4.35;1.48;;;16.40;78.90;;;;;;4971862;28;20034;-61
2023/07/22 02:12:08;;;;;;;3.05;1.70;;;16.30;79.10;;;;;;4970874;28;20101;-60
2023/07/22 02:14:33;;;;;;;2.15;1.80;;;16.30;79.40;;;;;;4971602;28;20038;-60
2023/07/22 02:16:59;;;;;;;1.90;1.63;;;16.30;79.50;;;;;;4970226;28;20122;-57
2023/07/22 02:19:25;;;;;;;1.92;1.60;;;16.20;79.60;;;;;;4971310;28;20038;-60
2023/07/22 02:21:50;;;;;;;3.78;2.00;;;16.20;79.60;;;;;;4969735;28;20062;-58
2023/07/22 02:24:16;;;;;;;2.05;1.85;;;16.20;79.70;;;;;;4972133;28;20042;-61
2023/07/22 02:26:41;;;;;;;4.93;1.73;;;16.20;79.80;;;;;;4969255;28;20031;-60
2023/07/22 02:29:07;;;;;;;1.90;1.65;;;16.10;79.90;;;;;;4972224;28;20043;-61
2023/07/22 02:31:33;;;;;;;4.57;1.90;;;16.00;80.10;;;;;;4971019;28;20497;-60
2023/07/22 02:33:59;;;;;;;4.68;1.88;;;16.00;80.30;;;;;;4970135;28;20086;-59
2023/07/22 02:36:24;;;;;;;2.78;2.03;;;16.00;80.50;;;;;;4970094;28;20034;-60
2023/07/22 02:38:50;;;;;;;4.05;2.00;;;16.00;80.50;;;;;;4969998;28;20038;-59
2023/07/22 02:41:15;;;;;;;3.42;1.95;;;15.90;80.70;;;;;;4970941;28;20470;-59
2023/07/22 02:43:41;;;;;;;2.60;1.98;;;15.90;80.80;;;;;;4970606;28;20495;-58
2023/07/22 02:46:08;;;;;;;2.45;1.90;;;15.90;80.70;;;;;;4972452;28;20043;-60
2023/07/22 02:48:33;;;;;;;4.32;1.80;;;15.80;80.60;;;;;;4968380;28;20588;-59
2023/07/22 02:51:10;;;;;;;3.50;1.92;;;15.80;80.80;;;;;;4969645;28;21631;-59
2023/07/22 02:53:36;;;;;;;1.95;1.67;;;15.70;81.50;;;;;;4969031;28;20063;-60
2023/07/22 02:56:03;;;;;;;2.60;2.00;;;15.80;81.10;;;;;;4977410;28;20089;-59
2023/07/22 02:58:28;;;;;;;2.72;1.90;;;15.70;81.10;;;;;;4970431;28;20083;-60
2023/07/22 03:00:54;;;;;;;1.85;1.70;;;15.70;81.40;;;;;;4971381;28;20039;-60
2023/07/22 03:03:20;;;;;;;2.67;1.70;;;15.70;81.50;;;;;;4972734;28;20046;-59
2023/07/22 03:05:45;;;;;;;3.42;2.00;;;15.60;81.50;;;;;;4971260;28;20030;-60
2023/07/22 03:08:11;;;;;;;2.10;1.73;;;15.60;81.50;;;;;;4969343;28;20039;-60
2023/07/22 03:10:37;;;;;;;6.88;1.95;;;15.60;81.60;;;;;;4971112;28;20112;-60
2023/07/22 03:13:02;;;;;;;5.80;1.83;;;15.60;81.70;;;;;;4970923;28;20702;-60
2023/07/22 03:15:28;;;;;;;2.75;2.17;;;15.60;81.60;;;;;;4970322;28;20173;-60
2023/07/22 03:17:59;;;;;;;3.28;1.73;;;15.50;81.60;;;;;;4969912;28;20042;-60
2023/07/22 03:20:25;;;;;;;2.83;2.05;;;15.50;81.70;;;;;;4969885;28;20639;-58
2023/07/22 03:22:51;;;;;;;3.22;1.73;;;15.50;81.90;;;;;;4968394;28;20041;-60
2023/07/22 03:25:17;;;;;;;3.33;1.98;;;15.50;82.00;;;;;;4968921;28;20036;-60
2023/07/22 03:27:44;;;;;;;1.90;1.70;;;15.50;81.90;;;;;;4971384;28;20117;-60
2023/07/22 03:30:14;;;;;;;2.55;1.73;;;15.40;81.80;;;;;;4971495;28;20046;-60
2023/07/22 03:32:50;;;;;;;3.67;1.88;;;15.40;81.90;;;;;;4969905;28;20046;-60
2023/07/22 03:35:17;;;;;;;4.70;1.70;;;15.40;81.80;;;;;;4969494;28;20062;-60
2023/07/22 03:37:43;;;;;;;2.55;1.60;;;15.40;81.90;;;;;;4969115;28;20086;-57
2023/07/22 03:42:44;;;;;;;2.85;1.63;;;15.30;82.40;;;;;;4968862;28;20049;-60
2023/07/22 03:45:10;;;;;;;5.63;1.90;;;15.30;83.60;;;;;;4968999;28;20034;-59
2023/07/22 03:47:35;;;;;;;2.03;1.83;;;15.30;82.70;;;;;;4970879;28;20027;-60
2023/07/22 03:50:04;;;;;;;2.63;1.45;;;15.30;82.60;;;;;;4967615;28;20070;-61
2023/07/22 03:52:30;;;;;;;2.10;1.90;;;15.30;82.40;;;;;;4968250;28;20037;-60
2023/07/22 03:54:55;;;;;;;2.10;1.92;;;15.30;82.40;;;;;;4969079;28;20442;-60
2023/07/22 03:57:28;;;;;;;2.50;1.85;;;15.40;82.40;;;;;;4969597;28;20031;-60
2023/07/22 03:59:55;;;;;;;6.65;2.22;;;15.40;82.60;;;;;;4968155;28;20038;-59
2023/07/22 04:02:21;;;;;;;2.70;1.77;;;15.40;82.40;;;;;;4972458;28;20138;-60
2023/07/22 04:04:47;;;;;;;2.20;1.83;;;15.40;82.40;;;;;;4968026;28;20042;-60
2023/07/22 04:07:13;;;;;;;3.17;1.92;;;15.40;82.50;;;;;;4968785;28;20507;-59
2023/07/22 04:09:38;;;;;;;6.38;1.88;;;15.40;82.40;;;;;;4967248;28;20173;-59
2023/07/22 04:12:04;;;;;;;3.92;1.90;;;15.40;82.50;;;;;;4969618;28;20522;-58
2023/07/22 04:14:30;;;;;;;2.30;2.10;;;15.30;82.50;;;;;;4967193;28;20096;-59
2023/07/22 04:16:55;;;;;;;1.92;1.83;;;15.30;82.70;;;;;;4969319;28;20491;-58
2023/07/22 04:19:21;;;;;;;2.95;1.70;;;15.30;83.10;;;;;;4969528;28;20131;-59
2023/07/22 04:21:47;;;;;;;2.03;1.80;;;15.40;83.40;;;;;;4968526;28;20042;-59
2023/07/22 04:24:12;;;;;;;3.55;1.63;;;15.30;83.40;;;;;;4967781;28;20038;-58
2023/07/22 04:26:39;;;;;;;2.45;1.75;;;15.30;83.10;;;;;;4967760;28;20078;-59
2023/07/22 04:29:04;;;;;;;4.65;1.98;;;15.40;83.00;;;;;;4968398;28;20547;-58
2023/07/22 04:31:30;;;;;;;3.45;1.85;;;15.40;83.10;;;;;;4968067;28;20050;-60
2023/07/22 04:33:57;;;;;;;2.72;1.60;;;15.30;83.20;;;;;;4972395;28;20042;-61
2023/07/22 04:36:23;;;;;;;2.90;2.00;;;15.30;83.40;;;;;;4968378;28;20039;-60
2023/07/22 04:38:48;;;;;;;2.35;1.73;;;15.40;83.40;;;;;;4969527;28;20057;-60
2023/07/22 04:41:14;;;;;;;2.65;1.90;;;15.40;83.30;;;;;;4967921;28;20041;-60
2023/07/22 04:43:40;;;;;;;2.28;1.70;;;15.40;83.40;;;;;;4967905;28;20097;-60
2023/07/22 04:46:09;;;;;;;4.20;1.83;;;15.40;83.50;;;;;;4967627;28;20474;-61
2023/07/22 04:48:34;;;;;;;3.55;1.77;;;15.50;83.60;;;;;;4970121;28;20050;-60
2023/07/22 04:51:00;;;;;;;2.83;1.73;;;15.50;83.30;;;;;;4968597;28;20302;-60
2023/07/22 04:53:25;;;;;;;2.47;2.00;;;15.50;83.30;;;;;;4966521;28;20375;-59
2023/07/22 04:55:51;;;;;;;3.13;2.00;;;15.50;83.30;;;;;;4967861;28;20411;-60
2023/07/22 04:58:17;;;;;;;2.00;1.65;;;15.50;83.30;;;;;;4967881;28;20045;-61
2023/07/22 05:00:43;;;;;;;2.20;1.70;;;15.60;83.50;;;;;;4967213;28;20034;-60
2023/07/22 05:03:08;;;;;;;1.80;1.65;;;15.50;83.50;;;;;;4967776;28;20105;-60
2023/07/22 05:05:35;;;;;;;3.90;1.90;;;15.50;83.70;;;;;;4970538;28;20109;-60
2023/07/22 05:08:01;;;;;;;3.58;2.00;;;15.60;83.80;;;;;;4967366;28;20046;-59
2023/07/22 05:10:28;;;;;;;2.88;1.73;;;15.60;84.10;;;;;;4965742;28;20051;-60
2023/07/22 05:12:54;;;;;;;3.08;1.67;;;15.60;84.30;;;;;;4973240;28;20053;-60
2023/07/22 05:15:20;;;;;;;4.20;1.75;;;15.60;84.40;;;;;;4967561;28;20047;-60
2023/07/22 05:17:46;;;;;;;3.78;1.73;;;15.70;84.50;;;;;;4967966;28;20038;-60
2023/07/22 05:20:12;;;;;;;3.90;2.20;;;15.70;84.50;;;;;;4968574;28;20047;-60
2023/07/22 05:22:39;;;;;;;5.15;1.77;;;15.80;84.60;;;;;;4967400;28;20031;-61
2023/07/22 05:25:06;;;;;;;2.00;1.80;;;15.80;85.00;;;;;;4967436;28;20039;-61
2023/07/22 05:27:32;;;;;;;2.92;2.05;;;15.80;85.20;;;;;;4969283;28;20027;-60
2023/07/22 05:29:58;;;;;;;2.83;1.95;;;15.80;85.40;;;;;;4968344;28;20038;-60
2023/07/22 05:32:23;;;;;;;1.70;1.60;;;15.90;85.30;;;;;;4969511;28;20042;-60
2023/07/22 05:34:49;;;;;;;2.00;1.80;;;16.00;86.00;;;;;;4969078;28;20450;-60
2023/07/22 05:37:14;;;;;;;2.05;1.85;;;16.10;85.30;;;;;;4966740;28;20044;-59
2023/07/22 05:39:40;;;;;;;2.55;1.75;;;16.20;85.20;;;;;;4967556;28;20038;-60
2023/07/22 05:42:06;;;;;;;1.73;1.58;;;16.20;85.00;;;;;;4966567;28;20228;-61
2023/07/22 05:44:31;;;;;;;5.80;1.98;;;16.30;85.00;;;;;;4966332;28;20418;-61
2023/07/22 05:46:57;;;;;;;2.95;2.10;;;16.40;84.80;;;;;;4968214;28;20030;-59
2023/07/22 05:49:24;;;;;;;2.22;1.75;;;16.50;85.00;;;;;;4966997;28;20054;-61
2023/07/22 05:51:49;;;;;;;2.15;1.98;;;16.50;85.00;;;;;;4969651;28;20054;-60
2023/07/22 05:54:15;;;;;;;3.63;2.05;;;16.70;84.60;;;;;;4966319;28;20450;-60
2023/07/22 05:56:41;;;;;;;3.25;1.98;;;16.80;84.50;;;;;;4967479;28;20399;-61
2023/07/22 05:59:07;;;;;;;3.42;1.80;;;16.90;84.50;;;;;;4966807;28;20406;-60
2023/07/22 06:01:32;;;;;;;3.20;2.20;;;16.90;84.10;;;;;;4967998;28;20035;-59
2023/07/22 06:03:58;;;;;;;3.00;2.40;;;17.10;84.30;;;;;;4967505;28;20817;-61
2023/07/22 06:06:23;;;;;;;5.18;2.60;;;17.10;84.30;;;;;;4969219;28;20073;-60
2023/07/22 06:08:49;;;;;;;4.82;2.85;;;17.20;84.30;;;;;;4967049;28;20051;-61
2023/07/22 06:11:15;;;;;;;3.97;2.75;;;17.30;84.50;;;;;;4969170;28;20030;-59
2023/07/22 06:13:40;;;;;;;4.07;3.33;;;17.40;84.70;;;;;;4966278;28;20035;-61
2023/07/22 06:16:06;;;;;;;3.13;2.83;;;17.40;84.60;;;;;;4966145;28;20041;-60
2023/07/22 06:18:31;;;;;;;4.97;3.10;;;17.60;84.70;;;;;;4967207;28;20510;-61
2023/07/22 06:20:57;;;;;;;5.72;2.97;;;17.60;84.70;;;;;;4966774;28;20038;-59
2023/07/22 06:23:22;;;;;;;3.10;2.80;;;17.70;84.60;;;;;;4971621;28;20035;-60
2023/07/22 06:25:48;;;;;;;3.55;2.97;;;17.80;84.60;;;;;;4969648;28;20145;-59
2023/07/22 06:28:13;;;;;;;3.95;2.45;;;17.90;84.60;;;;;;4971808;28;20047;-60
2023/07/22 06:30:39;;;;;;;3.85;2.40;;;18.00;84.50;;;;;;4969305;28;20117;-61
2023/07/22 06:33:04;;;;;;;3.10;2.67;;;18.10;84.30;;;;;;4970632;28;20506;-60
2023/07/22 06:35:30;;;;;;;3.10;2.00;;;18.20;84.10;;;;;;4970775;28;20045;-61
2023/07/22 06:37:56;;;;;;;3.22;2.33;;;18.30;83.80;;;;;;4972220;28;20414;-60
2023/07/22 06:40:21;;;;;;;2.55;2.20;;;18.30;83.40;;;;;;4969534;28;20158;-61
2023/07/22 06:42:47;;;;;;;2.17;1.98;;;18.40;83.30;;;;;;4969788;28;20042;-61
2023/07/22 06:45:12;;;;;;;3.03;2.03;;;18.50;82.80;;;;;;4977379;28;20098;-61
2023/07/22 06:47:38;;;;;;;2.70;1.90;;;18.60;82.30;;;;;;4977925;28;20061;-60
2023/07/22 06:50:04;;;;;;;2.25;2.00;;;18.70;81.50;;;;;;4978154;28;20039;-61
2023/07/22 06:52:30;;;;;;;2.67;1.70;;;18.70;80.60;;;;;;4977231;28;20058;-61
2023/07/22 06:54:56;;;;;;;2.38;1.80;;;18.80;81.00;;;;;;4979054;28;20031;-61
2023/07/22 06:57:22;;;;;;;1.92;1.73;;;18.90;80.40;;;;;;4979358;28;20030;-59
2023/07/22 06:59:47;;;;;;;4.20;1.63;;;19.00;79.80;;;;;;4972535;28;20042;-60
2023/07/22 07:02:13;;;;;;;1.90;1.70;;;19.00;79.80;;;;;;4973305;28;20106;-61
2023/07/22 07:04:38;;;;;;;2.22;1.50;;;19.10;79.30;;;;;;4979499;28;20055;-61
2023/07/22 07:07:04;;;;;;;3.45;1.77;;;19.20;79.10;;;;;;4979858;28;20031;-60
2023/07/22 07:09:30;;;;;;;2.13;1.70;;;19.30;78.80;;;;;;4979411;28;20022;-60
2023/07/22 07:11:58;;;;;;;2.15;1.42;;;19.30;79.10;;;;;;4980871;28;20031;-61
2023/07/22 07:14:27;;;;;;;1.73;1.50;;;19.50;79.10;;;;;;4980203;28;20046;-60
2023/07/22 07:16:52;;;;;;;2.67;1.65;;;19.50;78.60;;;;;;4972222;28;20043;-58
2023/07/22 07:19:18;;;;;;;2.08;1.60;;;19.60;78.30;;;;;;4970451;28;20502;-59
2023/07/22 07:21:44;;;;;;;3.40;1.70;;;19.70;77.70;;;;;;4977512;28;20045;-60
2023/07/22 07:24:09;;;;;;;2.08;1.42;;;19.80;77.20;;;;;;4978806;28;20043;-61
2023/07/22 07:26:35;;;;;;;2.65;1.60;;;19.80;76.00;;;;;;4979043;28;20495;-61
2023/07/22 07:29:00;;;;;;;1.40;1.30;;;20.00;75.10;;;;;;4979187;28;20035;-61
2023/07/22 07:31:27;;;;;;;1.55;1.40;;;20.00;74.10;;;;;;4972970;28;20057;-60
2023/07/22 07:33:52;;;;;;;3.97;1.55;;;20.10;73.30;;;;;;4967866;28;20510;-59
2023/07/22 07:36:18;;;;;;;2.55;1.55;;;20.20;72.10;;;;;;4972380;28;20046;-60
2023/07/22 07:38:44;;;;;;;2.60;1.40;;;20.30;70.80;;;;;;4972433;28;20054;-59
2023/07/22 07:41:13;;;;;;;1.65;1.20;;;20.30;71.00;;;;;;4978491;28;20043;-61
2023/07/22 07:43:42;;;;;;;2.30;1.30;;;20.40;71.10;;;;;;4978197;28;20487;-61
2023/07/22 07:46:27;;;;;;;1.55;1.40;;;20.50;70.60;;;;;;4975693;28;20547;-61
2023/07/22 07:48:56;;;;;;;1.23;1.13;;;20.60;68.90;;;;;;4974143;28;20043;-59
2023/07/22 07:51:24;;;;;;;2.55;1.15;;;20.60;68.50;;;;;;4970296;28;20034;-61
2023/07/22 07:53:51;;;;;;;1.95;1.13;;;20.70;67.10;;;;;;4970791;28;20535;-60
2023/07/22 07:56:18;;;;;;;1.23;1.10;;;20.80;67.30;;;;;;4969921;28;20066;-61
2023/07/22 07:58:45;;;;;;;1.33;0.80;;;20.80;67.60;;;;;;4969037;28;20042;-59
2023/07/22 08:01:11;;;;;;;2.42;0.88;;;20.90;66.30;;;;;;4976900;28;20046;-60
2023/07/22 08:03:38;;;;;;;1.08;0.82;;;21.00;65.20;;;;;;4977308;28;20203;-61
2023/07/22 08:06:04;;;;;;;0.80;0.80;;;21.00;64.50;;;;;;4972566;28;20035;-59
2023/07/22 08:08:30;;;;;;;1.67;0.90;;;21.10;64.50;;;;;;4968251;28;20125;-60
2023/07/22 08:11:06;;;;;;;1.10;1.00;;;21.20;64.50;;;;;;4973325;28;20057;-60
2023/07/22 08:13:33;;;;;;;2.55;1.00;;;21.20;62.60;;;;;;4969434;28;20101;-61
2023/07/22 08:16:00;;;;;;;1.83;0.88;;;21.30;64.10;;;;;;4969609;28;20053;-60
2023/07/22 08:18:25;;;;;;;2.20;1.10;;;21.40;63.30;;;;;;4970493;28;21434;-58
2023/07/22 08:20:52;;;;;;;1.20;0.98;;;21.40;63.00;;;;;;4969730;28;20042;-60
2023/07/22 08:23:19;;;;;;;2.35;0.80;;;21.50;62.50;;;;;;4968044;28;20042;-59
2023/07/22 08:25:44;;;;;;;1.42;0.95;;;21.60;62.60;;;;;;4972564;28;20038;-61
2023/07/22 08:28:10;;;;;;;1.20;1.10;;;21.60;62.30;;;;;;4969954;28;20589;-61
2023/07/22 08:30:36;;;;;;;2.65;1.10;;;21.70;62.10;;;;;;4968273;28;20035;-59
2023/07/22 08:33:01;;;;;;;1.20;1.08;;;21.80;62.60;;;;;;4969854;28;20109;-60
2023/07/22 08:35:27;;;;;;;1.40;1.20;;;21.80;62.70;;;;;;4969340;28;20121;-60
2023/07/22 08:37:53;;;;;;;1.63;1.20;;;21.90;62.60;;;;;;4969742;28;20067;-59
2023/07/22 08:40:20;;;;;;;2.25;1.08;;;22.00;62.00;;;;;;4970512;28;20417;-59
2023/07/22 08:42:48;;;;;;;1.35;1.10;;;22.10;62.00;;;;;;4970779;28;20031;-59
2023/07/22 08:45:14;;;;;;;1.30;1.20;;;22.10;60.50;;;;;;4969271;28;20030;-59
2023/07/22 08:47:45;;;;;;;1.60;0.90;;;22.20;60.40;;;;;;4967910;28;21344;-60
2023/07/22 08:50:14;;;;;;;1.58;1.02;;;22.30;60.10;;;;;;4967715;28;20517;-61
2023/07/22 08:52:40;;;;;;;3.22;0.93;;;22.40;59.40;;;;;;4966832;28;20043;-60
2023/07/22 08:55:08;;;;;;;1.13;1.02;;;22.40;59.20;;;;;;4967580;28;20057;-61
2023/07/22 08:57:35;;;;;;;1.15;1.02;;;22.50;58.50;;;;;;4971665;28;20475;-59
2023/07/22 09:00:01;;;;;;;2.08;0.93;;;22.50;58.50;;;;;;4969609;28;20402;-61
2023/07/22 09:02:27;;;;;;;0.95;0.80;;;22.60;58.20;;;;;;4967432;28;20089;-60
2023/07/22 09:04:52;;;;;;;1.02;0.90;;;22.70;57.30;;;;;;4968166;28;20447;-61
2023/07/22 09:07:18;;;;;;;2.63;1.00;;;22.80;56.60;;;;;;4969477;28;20039;-61
2023/07/22 09:09:47;;;;;;;1.00;0.90;;;22.90;56.60;;;;;;4967421;28;20489;-61
2023/07/22 09:12:14;;;;;;;0.77;0.77;;;22.90;56.70;;;;;;4971539;28;20474;-62
2023/07/22 09:14:41;;;;;;;0.88;0.88;;;23.00;56.10;;;;;;4966952;28;20678;-61
2023/07/22 09:17:06;;;;;;;0.82;0.63;;;23.00;55.80;;;;;;4968543;28;20079;-62
2023/07/22 09:19:32;;;;;;;0.88;0.88;;;23.20;56.00;;;;;;4967901;28;20026;-59
2023/07/22 09:21:58;;;;;;;0.80;0.80;;;23.20;55.50;;;;;;4967559;28;20038;-62
2023/07/22 09:24:27;;;;;;;0.93;0.77;;;23.30;55.30;;;;;;4967374;28;20086;-60
2023/07/22 09:26:54;;;;;;;0.80;0.80;;;23.40;55.70;;;;;;4969760;28;20046;-61
2023/07/22 09:29:33;;;;;;;1.73;1.10;;;23.40;55.80;;;;;;4967453;28;20417;-61
2023/07/22 09:31:59;;;;;;;3.55;1.00;;;23.50;51.60;;;;;;4969007;28;20498;-61
2023/07/22 09:34:25;;;;;;;1.13;0.93;;;23.50;53.30;;;;;;4967843;28;20042;-61
2023/07/22 09:36:54;;;;;;;1.58;1.17;;;23.60;53.10;;;;;;4967270;28;20387;-62
2023/07/22 09:39:21;;;;;;;0.93;0.82;;;23.60;53.60;;;;;;4967531;28;20037;-62
2023/07/22 09:41:47;;;;;;;1.10;1.00;;;23.60;54.20;;;;;;4972163;28;20046;-62
2023/07/22 09:44:12;;;;;;;1.65;0.90;;;23.60;53.90;;;;;;4967580;28;20030;-62
2023/07/22 09:46:38;;;;;;;1.27;1.10;;;23.70;53.70;;;;;;4971652;28;20544;-61
2023/07/22 09:49:05;;;;;;;1.15;0.90;;;23.70;54.00;;;;;;4968325;28;20065;-61
2023/07/22 09:51:39;;;;;;;0.70;0.70;;;23.70;53.00;;;;;;4967670;28;20034;-60
2023/07/22 09:54:05;;;;;;;1.38;0.95;;;23.70;51.30;;;;;;4967448;28;20039;-59
2023/07/22 09:56:32;;;;;;;1.38;0.95;;;23.70;51.20;;;;;;4974121;28;20039;-60
2023/07/22 09:59:04;;;;;;;4.75;0.95;;;23.70;52.30;;;;;;4978120;28;20126;-60
2023/07/22 10:01:30;;;;;;;1.08;0.98;;;23.70;52.60;;;;;;4977118;28;20438;-61
2023/07/22 10:03:56;;;;;;;0.82;0.80;;;23.70;53.70;;;;;;4979853;28;20089;-60
2023/07/22 10:06:26;;;;;;;0.80;0.80;;;23.80;53.20;;;;;;4978895;28;20077;-60
2023/07/22 10:08:52;;;;;;;1.33;0.80;;;23.90;54.00;;;;;;4978583;28;20034;-60
2023/07/22 10:11:18;;;;;;;1.05;0.80;;;24.10;53.60;;;;;;4977796;28;20030;-61
2023/07/22 10:13:45;;;;;;;2.20;0.90;;;24.10;52.90;;;;;;4978630;28;20089;-60
2023/07/22 10:16:12;;;;;;;2.20;0.80;;;24.30;52.00;;;;;;4975903;28;20038;-60
2023/07/22 10:18:41;;;;;;;2.45;1.00;;;24.30;51.60;;;;;;4978250;28;20041;-59
2023/07/22 10:21:07;;;;;;;0.90;0.63;;;24.40;51.00;;;;;;4976695;28;20042;-61
2023/07/22 10:23:33;;;;;;;0.70;0.70;;;24.50;51.30;;;;;;4979187;28;20039;-61
2023/07/22 10:25:59;;;;;;;2.60;0.60;;;24.60;51.50;;;;;;4978538;28;20045;-61
2023/07/22 10:28:26;;;;;;;1.08;0.98;;;24.60;51.80;;;;;;4978227;28;20035;-59
2023/07/22 10:30:53;;;;;;;1.02;0.80;;;24.70;51.00;;;;;;4977912;28;20133;-61
2023/07/22 10:33:18;;;;;;;1.10;0.95;;;24.80;50.70;;;;;;4970340;28;20077;-61
2023/07/22 10:36:03;;;;;;;1.92;1.02;;;24.90;49.30;;;;;;4972595;28;20390;-61
2023/07/22 10:38:29;;;;;;;2.88;0.82;;;25.00;48.30;;;;;;4973022;28;20311;-61
2023/07/22 10:40:56;;;;;;;0.75;0.70;;;25.00;50.30;;;;;;4975378;28;20502;-61
2023/07/22 10:43:31;;;;;;;0.82;0.80;;;25.00;50.40;;;;;;4977878;28;20134;-62
2023/07/22 10:45:59;;;;;;;2.05;0.80;;;25.10;49.50;;;;;;4978645;28;20042;-61
2023/07/22 10:48:35;;;;;;;1.40;1.10;;;25.10;49.90;;;;;;4977805;28;20042;-60
2023/07/22 10:51:10;;;;;;;1.10;1.00;;;25.20;48.90;;;;;;4978103;28;20121;-62
2023/07/22 10:53:44;;;;;;;1.13;0.95;;;25.30;49.20;;;;;;4977575;28;20042;-62
2023/07/22 10:56:13;;;;;;;1.25;0.75;;;25.30;50.10;;;;;;4976674;28;20059;-60
2023/07/22 10:58:44;;;;;;;0.98;0.88;;;25.40;50.20;;;;;;4975173;28;20050;-61
2023/07/22 11:01:28;;;;;;;1.15;1.00;;;25.40;49.40;;;;;;4976777;28;20042;-62
2023/07/22 11:04:35;;;;;;;0.85;0.82;;;25.40;49.00;;;;;;4976427;28;20423;-62
2023/07/22 11:07:05;;;;;;;0.90;0.90;;;25.40;49.30;;;;;;4976727;28;20061;-62
2023/07/22 11:09:33;;;;;;;1.10;1.00;;;25.40;49.10;;;;;;4976667;28;20557;-61
2023/07/22 11:12:05;;;;;;;2.15;1.20;;;25.50;50.60;;;;;;4977554;28;20483;-59
2023/07/22 11:14:37;;;;;;;2.00;1.10;;;25.50;49.30;;;;;;4975256;28;20462;-61
2023/07/22 11:17:05;;;;;;;1.13;1.02;;;25.50;49.40;;;;;;4977270;28;20054;-62
2023/07/22 11:19:31;;;;;;;1.10;1.00;;;25.50;49.80;;;;;;4976002;28;20037;-61
2023/07/22 11:21:56;;;;;;;6.00;1.20;;;25.50;49.40;;;;;;4977543;28;20363;-61
2023/07/22 11:24:23;;;;;;;1.55;0.98;;;25.50;49.30;;;;;;4974623;28;20045;-61
2023/07/22 11:26:51;;;;;;;1.85;1.10;;;25.50;49.10;;;;;;4976837;28;21004;-61
2023/07/22 11:29:17;;;;;;;1.40;0.95;;;25.50;48.90;;;;;;4975237;28;20038;-61
2023/07/22 11:31:46;;;;;;;3.20;1.10;;;25.50;49.50;;;;;;4975894;28;20070;-62
2023/07/22 11:34:13;;;;;;;1.20;1.10;;;25.50;49.80;;;;;;4977239;28;20061;-61
2023/07/22 11:36:39;;;;;;;1.25;1.15;;;25.60;49.40;;;;;;4976600;28;20049;-61
2023/07/22 11:39:08;;;;;;;0.90;0.90;;;25.60;49.50;;;;;;4976450;28;20042;-61
2023/07/22 11:41:34;;;;;;;1.10;1.00;;;25.60;49.50;;;;;;4975715;28;20295;-61
2023/07/22 11:44:01;;;;;;;3.35;1.25;;;25.60;49.60;;;;;;4977066;28;20034;-62
2023/07/22 11:46:28;;;;;;;1.10;1.00;;;25.70;49.30;;;;;;4976452;28;20046;-61
2023/07/22 11:48:55;;;;;;;1.38;1.27;;;25.70;48.30;;;;;;4976519;28;20530;-61
2023/07/22 11:51:22;;;;;;;1.80;1.40;;;25.70;48.00;;;;;;4976149;28;20042;-61
2023/07/22 11:53:52;;;;;;;2.15;1.15;;;25.70;48.40;;;;;;4976615;28;20038;-61
2023/07/22 11:56:22;;;;;;;2.25;1.20;;;25.70;48.40;;;;;;4976141;28;20126;-61
2023/07/22 11:58:52;;;;;;;1.30;1.20;;;25.70;48.00;;;;;;4976910;28;20042;-61
2023/07/22 12:01:18;;;;;;;2.42;1.40;;;25.70;48.40;;;;;;4977242;28;20251;-61
2023/07/22 12:03:45;;;;;;;2.45;1.50;;;25.70;48.10;;;;;;4977069;28;20038;-61
2023/07/22 12:06:11;;;;;;;2.17;1.23;;;25.70;47.50;;;;;;4976664;28;20045;-61
2023/07/22 12:08:43;;;;;;;6.10;1.50;;;25.60;48.00;;;;;;4975718;28;20038;-62
2023/07/22 12:11:08;;;;;;;1.35;1.25;;;25.60;48.30;;;;;;4977441;28;20052;-61
2023/07/22 12:13:37;;;;;;;2.80;1.00;;;25.60;47.50;;;;;;4975575;28;20042;-61
2023/07/22 12:16:05;;;;;;;2.10;1.15;;;25.70;48.20;;;;;;4975357;28;20049;-60
2023/07/22 12:18:47;;;;;;;1.85;1.00;;;25.70;48.10;;;;;;4974827;28;20038;-61
2023/07/22 12:21:13;;;;;;;1.20;1.10;;;25.80;47.80;;;;;;4974844;28;20046;-61
2023/07/22 12:23:39;;;;;;;2.08;1.25;;;25.80;48.10;;;;;;4983694;28;20498;-62
2023/07/22 12:26:06;;;;;;;3.47;1.50;;;25.80;48.10;;;;;;4973886;28;20046;-61
2023/07/22 12:28:31;;;;;;;2.70;1.30;;;25.80;47.20;;;;;;4976249;28;20062;-61
2023/07/22 12:30:57;;;;;;;1.27;1.17;;;25.90;47.30;;;;;;4976372;28;20050;-60
2023/07/22 12:33:26;;;;;;;1.23;1.13;;;25.90;47.50;;;;;;4974693;28;20038;-60
2023/07/22 12:35:56;;;;;;;2.72;1.40;;;25.90;47.60;;;;;;4975873;28;20359;-61
2023/07/22 12:38:22;;;;;;;1.55;1.40;;;25.90;47.50;;;;;;4976049;28;20361;-61
2023/07/22 12:40:48;;;;;;;1.38;1.23;;;26.00;47.10;;;;;;4975699;28;20093;-61
2023/07/22 12:43:14;;;;;;;2.92;1.48;;;26.00;47.50;;;;;;4975272;28;20490;-61
2023/07/22 12:45:39;;;;;;;79.88;5.05;;;26.10;47.60;;;;;;4975795;28;20042;-61
2023/07/22 12:48:05;;;;;;;1.73;1.48;;;26.10;47.30;;;;;;4972783;28;20038;-62